Time;durP1;ratioP1;P1;durP2;ratioP2;P2;SDS_P1;SDS_P2;PMS_P1;PMS_P2;Temp;Humidity;BMP_temperature;BMP_pressure;BME280_temperature;BME280_humidity;BME280_pressure;Samples;Min_cycle;Max_cycle;Signal;HPM_P1;HPM_P2
2023/05/20 00:02:10;;;;;;;;;45.25;38.50;;;;;15.49;62.11;99618.75;5068439;28;8971;-77
2023/05/20 00:04:40;;;;;;;;;42.75;36.00;;;;;15.75;61.01;99629.19;5069845;28;8846;-77
2023/05/20 00:07:09;;;;;;;;;40.25;35.75;;;;;15.60;61.63;99624.50;5067720;28;9433;-78
2023/05/20 00:09:39;;;;;;;;;46.75;38.25;;;;;15.61;61.59;99621.81;5067987;28;8854;-77
2023/05/20 00:12:08;;;;;;;;;45.75;38.25;;;;;15.45;62.41;99640.09;5068357;28;8863;-78
2023/05/20 00:14:37;;;;;;;;;47.25;39.75;;;;;15.50;61.84;99629.28;5048667;28;8848;-77
2023/05/20 00:17:07;;;;;;;;;46.25;39.75;;;;;15.29;62.73;99633.66;5049936;28;8867;-79
2023/05/20 00:19:36;;;;;;;;;47.25;39.00;;;;;15.39;62.02;99639.44;5049922;28;8849;-78
2023/05/20 00:22:05;;;;;;;;;52.00;43.25;;;;;15.16;62.75;99624.47;5064977;28;8850;-77
2023/05/20 00:24:34;;;;;;;;;53.50;42.50;;;;;14.97;63.53;99619.88;5081563;28;8858;-78
2023/05/20 00:27:02;;;;;;;;;48.50;41.50;;;;;14.99;63.28;99610.09;5071765;28;8874;-78
2023/05/20 00:29:31;;;;;;;;;51.00;41.75;;;;;14.85;63.76;99615.91;5067728;28;8935;-79
2023/05/20 00:32:00;;;;;;;;;52.00;42.50;;;;;14.93;63.48;99610.31;5033540;28;8866;-79
2023/05/20 00:34:30;;;;;;;;;55.00;44.00;;;;;15.14;62.58;99606.00;5051104;28;8889;-77
2023/05/20 00:36:59;;;;;;;;;51.50;44.25;;;;;14.98;63.36;99597.78;5067937;28;8878;-76
2023/05/20 00:39:29;;;;;;;;;49.00;41.75;;;;;14.92;63.56;99603.28;5069387;28;8927;-77
2023/05/20 00:42:01;;;;;;;;;52.00;42.25;;;;;14.82;64.14;99605.44;5067545;28;9750;-77
2023/05/20 00:44:30;;;;;;;;;47.75;40.25;;;;;14.78;64.27;99595.88;5068097;28;8862;-77
2023/05/20 00:46:58;;;;;;;;;51.00;42.75;;;;;14.83;64.18;99601.88;5054851;28;8865;-79
2023/05/20 00:49:28;;;;;;;;;47.25;39.75;;;;;14.99;63.51;99609.22;5047586;28;8861;-77
2023/05/20 00:51:58;;;;;;;;;42.25;34.25;;;;;15.01;63.48;99607.38;5051072;28;8851;-78
2023/05/20 00:54:27;;;;;;;;;47.50;40.00;;;;;14.97;63.33;99600.50;5066694;28;8850;-76
2023/05/20 00:56:57;;;;;;;;;44.00;37.25;;;;;14.84;63.96;99606.22;5046201;28;8895;-77
2023/05/20 00:59:26;;;;;;;;;39.00;35.00;;;;;14.01;67.29;99605.69;5029754;28;8861;-78
2023/05/20 01:01:56;;;;;;;;;48.25;40.00;;;;;13.51;69.13;99598.50;5025932;28;8887;-77
2023/05/20 01:04:25;;;;;;;;;48.75;39.50;;;;;13.24;69.96;99609.03;5006364;28;8964;-79
2023/05/20 01:06:54;;;;;;;;;47.00;40.25;;;;;13.47;69.23;99612.72;5006941;28;8924;-75
2023/05/20 01:09:25;;;;;;;;;41.00;34.75;;;;;13.33;69.31;99618.41;4947928;28;9033;-76
2023/05/20 01:11:59;;;;;;;;;52.75;41.75;;;;;13.30;69.55;99616.75;4935803;28;9198;-77
2023/05/20 01:14:33;;;;;;;;;47.75;39.00;;;;;13.50;67.45;99616.09;4935197;28;8873;-76
2023/05/20 01:17:08;;;;;;;;;50.50;40.00;;;;;13.63;67.21;99615.72;4951709;28;8884;-77
2023/05/20 01:19:42;;;;;;;;;46.75;39.25;;;;;13.96;65.75;99605.84;4911303;28;8861;-77
2023/05/20 01:22:13;;;;;;;;;45.50;39.75;;;;;14.16;64.61;99599.00;4948753;28;8880;-76
2023/05/20 01:24:48;;;;;;;;;37.50;34.00;;;;;14.40;63.58;99600.78;4916357;28;8919;-76
2023/05/20 01:27:19;;;;;;;;;49.75;42.00;;;;;14.46;63.30;99599.69;4937158;28;8853;-77
2023/05/20 01:29:50;;;;;;;;;47.00;39.50;;;;;14.37;63.67;99595.59;4951378;28;8878;-78
2023/05/20 01:32:23;;;;;;;;;51.00;42.75;;;;;14.50;62.88;99597.81;4946835;28;9511;-77
2023/05/20 01:34:53;;;;;;;;;41.50;37.00;;;;;14.59;62.39;99594.81;4956800;28;8854;-78
2023/05/20 01:37:24;;;;;;;;;46.75;39.25;;;;;14.71;61.72;99594.34;4970072;28;9601;-77
2023/05/20 01:39:56;;;;;;;;;43.75;36.25;;;;;14.66;62.37;99591.88;5007015;28;9026;-77
2023/05/20 01:42:27;;;;;;;;;49.75;41.00;;;;;14.74;61.68;99585.50;5047455;28;8876;-77
2023/05/20 01:44:56;;;;;;;;;49.25;40.00;;;;;14.76;61.41;99581.84;5056152;28;8865;-77
2023/05/20 01:47:24;;;;;;;;;47.00;40.50;;;;;14.78;61.40;99587.94;5049127;28;8994;-76
2023/05/20 01:49:54;;;;;;;;;48.50;38.00;;;;;14.18;63.08;99590.09;5016296;28;8836;-80
2023/05/20 01:52:23;;;;;;;;;46.25;40.00;;;;;14.42;62.21;99580.41;5039428;28;8885;-76
2023/05/20 01:54:52;;;;;;;;;46.50;38.50;;;;;14.55;61.51;99590.56;5032181;28;8939;-75
2023/05/20 01:57:23;;;;;;;;;49.25;41.75;;;;;14.79;60.66;99580.88;5035745;28;8835;-76
2023/05/20 01:59:53;;;;;;;;;42.25;38.00;;;;;14.84;60.08;99582.41;5040802;28;8866;-77
2023/05/20 02:02:22;;;;;;;;;51.00;42.75;;;;;14.86;60.19;99582.38;5028121;28;8890;-79
2023/05/20 02:04:55;;;;;;;;;48.50;41.25;;;;;14.94;59.97;99574.13;5030089;28;8838;-77
2023/05/20 02:07:23;;;;;;;;;48.00;40.50;;;;;14.87;60.28;99568.22;5052142;28;8836;-76
2023/05/20 02:09:53;;;;;;;;;39.25;34.75;;;;;14.86;60.31;99563.84;5078998;28;8867;-79
2023/05/20 02:12:23;;;;;;;;;48.75;40.00;;;;;14.93;60.00;99572.41;5065778;28;8856;-77
2023/05/20 02:14:52;;;;;;;;;48.50;40.00;;;;;14.82;60.25;99581.63;5048505;28;8836;-77
2023/05/20 02:17:21;;;;;;;;;43.50;38.00;;;;;14.89;59.65;99568.16;4988980;28;8866;-77
2023/05/20 02:19:50;;;;;;;;;45.75;38.50;;;;;14.87;59.95;99562.94;4930919;28;8869;-77
2023/05/20 02:22:18;;;;;;;;;48.00;41.00;;;;;14.81;60.20;99548.16;4930705;28;9044;-76
2023/05/20 02:24:47;;;;;;;;;49.75;40.25;;;;;14.85;60.15;99554.19;4930213;29;8880;-80
2023/05/20 02:27:16;;;;;;;;;47.25;40.75;;;;;14.94;59.74;99555.59;4930890;29;9043;-76
2023/05/20 02:29:46;;;;;;;;;42.75;36.50;;;;;14.95;59.97;99554.69;4947759;29;8858;-75
2023/05/20 02:32:15;;;;;;;;;38.50;34.00;;;;;14.95;59.87;99546.75;4915962;29;8872;-77
2023/05/20 02:34:44;;;;;;;;;47.75;40.00;;;;;14.95;59.75;99544.97;4927544;29;8892;-75
2023/05/20 02:37:13;;;;;;;;;49.50;41.00;;;;;14.96;60.26;99549.34;4911866;29;9033;-77
2023/05/20 02:39:42;;;;;;;;;51.50;42.00;;;;;14.79;61.28;99552.63;4917434;29;8873;-78
2023/05/20 02:42:12;;;;;;;;;55.00;45.50;;;;;14.77;61.42;99543.91;4946719;29;8870;-76
2023/05/20 02:44:41;;;;;;;;;52.00;43.25;;;;;14.85;60.83;99539.16;4940937;28;8884;-76
2023/05/20 02:47:11;;;;;;;;;56.75;45.75;;;;;14.86;61.05;99540.03;4946767;29;8858;-78
2023/05/20 02:49:40;;;;;;;;;58.25;46.00;;;;;14.91;61.00;99543.34;4971418;28;8878;-76
2023/05/20 02:52:11;;;;;;;;;60.50;48.00;;;;;14.94;61.04;99550.31;5060309;28;8850;-77
2023/05/20 02:54:41;;;;;;;;;65.25;53.00;;;;;14.91;60.97;99542.50;5072327;28;8838;-76
2023/05/20 02:57:10;;;;;;;;;61.00;48.00;;;;;14.90;61.03;99549.56;5071267;28;8904;-77
2023/05/20 02:59:39;;;;;;;;;64.25;51.00;;;;;14.93;61.27;99549.44;5071776;28;8830;-76
2023/05/20 03:02:08;;;;;;;;;80.00;73.25;;;;;14.88;61.63;99542.59;5071191;28;9071;-76
2023/05/20 03:04:39;;;;;;;;;66.75;52.00;;;;;14.96;61.27;99552.00;5056611;28;9940;-75
2023/05/20 03:07:08;;;;;;;;;69.00;53.50;;;;;14.92;61.61;99553.00;5062388;28;8838;-77
2023/05/20 03:09:38;;;;;;;;;66.25;52.50;;;;;14.91;61.49;99561.03;5072763;28;8959;-76
2023/05/20 03:12:07;;;;;;;;;65.25;52.25;;;;;14.94;61.58;99561.75;5071677;28;8845;-78
2023/05/20 03:14:36;;;;;;;;;76.67;63.00;;;;;14.91;61.85;99568.97;5070240;28;8870;-77
2023/05/20 03:17:05;;;;;;;;;75.00;62.33;;;;;14.97;61.35;99574.88;5071042;28;9174;-76
2023/05/20 03:19:35;;;;;;;;;59.25;47.50;;;;;14.97;61.32;99574.88;5071428;28;9080;-77
2023/05/20 03:22:06;;;;;;;;;50.50;42.25;;;;;14.95;61.83;99578.50;5054505;28;8858;-78
2023/05/20 03:24:35;;;;;;;;;51.75;43.00;;;;;14.83;62.46;99579.84;5068939;28;8855;-79
2023/05/20 03:27:04;;;;;;;;;51.50;42.00;;;;;14.84;62.55;99579.75;5018587;28;8955;-78
2023/05/20 03:29:35;;;;;;;;;48.00;41.25;;;;;14.89;62.33;99578.75;5067652;28;8850;-77
2023/05/20 03:32:04;;;;;;;;;46.75;39.25;;;;;14.98;62.08;99581.03;5034816;28;8884;-79
2023/05/20 03:34:33;;;;;;;;;47.00;39.25;;;;;15.02;62.06;99577.34;5060871;28;8857;-78
2023/05/20 03:37:02;;;;;;;;;49.25;40.75;;;;;15.09;61.93;99577.97;5058390;28;8833;-78
2023/05/20 03:39:32;;;;;;;;;48.75;41.75;;;;;15.12;61.84;99576.06;5018266;28;8850;-76
2023/05/20 03:42:01;;;;;;;;;62.25;50.00;;;;;15.05;61.89;99575.44;5030051;28;8861;-76
2023/05/20 03:44:30;;;;;;;;;51.25;40.50;;;;;15.13;61.38;99561.91;5025497;28;8880;-79
2023/05/20 03:46:59;;;;;;;;;45.75;38.25;;;;;15.17;61.58;99560.88;5045749;28;8861;-78
2023/05/20 03:49:28;;;;;;;;;48.50;40.00;;;;;15.14;61.71;99562.78;4994924;28;9019;-79
2023/05/20 03:51:57;;;;;;;;;46.25;38.00;;;;;15.13;61.72;99561.91;5012506;28;9791;-78
2023/05/20 03:54:26;;;;;;;;;51.25;41.75;;;;;15.05;62.29;99558.69;5022669;28;8860;-77
2023/05/20 03:56:57;;;;;;;;;46.50;40.00;;;;;14.67;63.74;99563.63;5034341;28;8974;-77
2023/05/20 03:59:26;;;;;;;;;47.50;40.50;;;;;13.88;66.92;99566.47;4994495;28;8868;-77
2023/05/20 04:01:56;;;;;;;;;48.50;41.75;;;;;13.98;67.09;99574.06;5026412;28;8840;-78
2023/05/20 04:04:26;;;;;;;;;49.00;41.50;;;;;14.43;65.53;99578.63;5022235;28;9714;-77
2023/05/20 04:06:55;;;;;;;;;49.25;41.75;;;;;14.74;64.53;99575.75;5029670;28;8874;-78
2023/05/20 04:09:24;;;;;;;;;42.75;37.50;;;;;14.92;63.71;99574.19;5046148;28;8862;-80
2023/05/20 04:11:53;;;;;;;;;49.75;40.50;;;;;15.16;62.81;99572.38;5013911;28;9593;-74
2023/05/20 04:14:24;;;;;;;;;52.00;42.50;;;;;15.44;62.14;99566.81;5013392;28;8886;-79
2023/05/20 04:16:52;;;;;;;;;54.50;45.25;;;;;15.52;61.28;99571.81;5050356;28;8933;-76
2023/05/20 04:19:22;;;;;;;;;52.50;43.50;;;;;15.61;60.39;99581.22;5065873;28;8852;-77
2023/05/20 04:21:51;;;;;;;;;56.75;46.25;;;;;15.69;60.17;99587.03;5031649;28;8869;-79
2023/05/20 04:24:23;;;;;;;;;47.25;39.50;;;;;15.81;59.72;99596.25;5031275;28;8864;-79
2023/05/20 04:26:52;;;;;;;;;48.00;39.75;;;;;15.96;59.35;99587.69;5084299;28;8846;-78
2023/05/20 04:29:21;;;;;;;;;45.25;38.25;;;;;16.06;59.52;99593.47;5067234;28;8977;-78
2023/05/20 04:31:52;;;;;;;;;46.75;40.50;;;;;16.17;59.06;99590.31;5031137;28;9722;-80
2023/05/20 04:34:25;;;;;;;;;49.25;37.75;;;;;16.21;58.49;99587.47;5048667;28;8877;-78
2023/05/20 04:36:56;;;;;;;;;47.00;39.75;;;;;16.33;58.22;99586.06;5031232;28;9583;-80
2023/05/20 04:39:25;;;;;;;;;48.50;39.25;;;;;16.46;58.01;99583.78;5056292;28;8854;-76
2023/05/20 04:41:54;;;;;;;;;48.50;40.00;;;;;16.55;57.54;99575.41;5064230;28;8853;-80
2023/05/20 04:44:25;;;;;;;;;40.00;35.25;;;;;16.67;57.55;99566.00;5047833;28;8845;-78
2023/05/20 04:46:56;;;;;;;;;44.50;37.25;;;;;16.83;57.21;99574.13;5047655;28;8872;-76
2023/05/20 04:49:25;;;;;;;;;41.25;35.50;;;;;16.79;57.21;99573.41;5000033;28;8841;-79
2023/05/20 04:51:54;;;;;;;;;40.75;34.50;;;;;16.82;57.46;99569.75;5050255;28;8863;-79
2023/05/20 04:54:24;;;;;;;;;43.25;36.00;;;;;16.95;57.05;99573.56;5048517;28;9681;-77
2023/05/20 04:56:52;;;;;;;;;40.75;34.00;;;;;16.93;57.31;99570.13;5051328;28;8892;-79
2023/05/20 04:59:21;;;;;;;;;40.00;34.75;;;;;16.99;57.29;99575.13;4996527;28;8974;-77
2023/05/20 05:01:51;;;;;;;;;44.25;36.25;;;;;17.33;56.56;99567.38;5009331;28;8867;-77
2023/05/20 05:04:21;;;;;;;;;42.25;34.75;;;;;17.52;55.82;99570.00;5009803;28;8996;-81
2023/05/20 05:06:50;;;;;;;;;34.25;32.00;;;;;17.65;55.00;99579.09;4989817;28;8858;-76
2023/05/20 05:09:20;;;;;;;;;36.25;33.25;;;;;17.84;54.32;99575.50;5008549;28;8880;-79
2023/05/20 05:11:49;;;;;;;;;33.75;32.25;;;;;17.76;53.42;99571.44;4996098;28;8851;-77
2023/05/20 05:14:19;;;;;;;;;32.20;30.60;;;;;17.91;52.92;99583.09;5027355;28;8953;-76
2023/05/20 05:16:47;;;;;;;;;33.25;32.25;;;;;18.04;52.36;99582.47;5029205;28;8853;-78
2023/05/20 05:19:17;;;;;;;;;26.20;24.60;;;;;18.08;51.47;99586.69;5046998;28;8845;-77
2023/05/20 05:21:47;;;;;;;;;31.80;29.40;;;;;18.25;50.98;99591.16;5062851;28;8920;-79
2023/05/20 05:24:17;;;;;;;;;32.50;31.00;;;;;18.38;50.28;99588.72;5031938;28;8880;-78
2023/05/20 05:26:45;;;;;;;;;39.00;33.25;;;;;18.35;49.94;99589.75;5030057;28;8918;-79
2023/05/20 05:29:15;;;;;;;;;36.00;33.50;;;;;17.50;51.88;99591.34;5046634;28;8849;-78
2023/05/20 05:31:43;;;;;;;;;32.75;30.75;;;;;18.12;51.29;99604.25;5064863;28;8860;-78
2023/05/20 05:34:13;;;;;;;;;37.00;33.00;;;;;18.45;50.58;99600.75;5066398;28;8846;-81
2023/05/20 05:36:41;;;;;;;;;40.00;35.25;;;;;18.61;50.03;99595.47;5062496;28;9637;-79
2023/05/20 05:39:12;;;;;;;;;32.25;30.25;;;;;18.75;49.86;99604.44;5061820;28;8863;-75
2023/05/20 05:41:41;;;;;;;;;37.00;34.25;;;;;18.50;48.93;99601.38;5061772;28;8856;-78
2023/05/20 05:44:10;;;;;;;;;39.75;34.50;;;;;18.03;51.01;99600.25;5048952;28;8868;-79
2023/05/20 05:46:39;;;;;;;;;37.00;32.00;;;;;18.43;50.01;99605.31;5065846;28;8899;-78
2023/05/20 05:49:08;;;;;;;;;36.00;32.00;;;;;18.39;49.99;99603.75;5068697;28;8830;-78
2023/05/20 05:51:37;;;;;;;;;39.25;33.00;;;;;18.64;49.54;99601.50;5049416;28;9691;-77
2023/05/20 05:54:07;;;;;;;;;30.00;28.80;;;;;18.88;49.25;99601.16;5037635;28;8846;-78
2023/05/20 05:56:37;;;;;;;;;30.80;28.60;;;;;19.10;49.43;99596.34;5041586;28;8980;-78
2023/05/20 05:59:06;;;;;;;;;30.00;29.20;;;;;19.36;48.54;99594.00;5062841;28;8946;-77
2023/05/20 06:01:36;;;;;;;;;30.00;30.00;;;;;19.60;48.36;99597.13;5055172;28;8858;-77
2023/05/20 06:04:05;;;;;;;;;29.00;28.20;;;;;19.83;47.04;99595.78;5084979;28;8977;-77
2023/05/20 06:06:36;;;;;;;;;28.20;26.20;;;;;20.08;46.68;99602.31;5039288;28;8919;-76
2023/05/20 06:09:05;;;;;;;;;26.20;26.20;;;;;20.29;46.30;99606.41;5047099;28;8850;-77
2023/05/20 06:11:35;;;;;;;;;24.40;24.40;;;;;20.43;45.59;99607.41;5044737;28;8897;-77
2023/05/20 06:14:05;;;;;;;;;24.80;23.60;;;;;20.64;43.94;99611.41;5045206;28;8924;-82
2023/05/20 06:16:34;;;;;;;;;23.20;22.60;;;;;20.56;43.65;99613.69;5049608;28;8878;-79
2023/05/20 06:19:04;;;;;;;;;24.80;23.80;;;;;20.52;42.97;99622.84;5067326;28;9052;-78
2023/05/20 06:21:33;;;;;;;;;21.40;21.40;;;;;20.60;42.87;99623.22;5047661;28;8866;-79
2023/05/20 06:24:02;;;;;;;;;21.40;20.60;;;;;20.66;42.88;99620.19;5049345;28;8878;-80
2023/05/20 06:26:31;;;;;;;;;20.60;19.40;;;;;20.68;43.42;99623.59;5017351;28;9630;-78
2023/05/20 06:29:00;;;;;;;;;27.40;25.00;;;;;20.77;42.66;99619.50;5053290;28;8855;-82
2023/05/20 06:31:32;;;;;;;;;22.80;22.80;;;;;20.94;42.35;99623.84;5053282;28;9023;-86
2023/05/20 06:34:01;;;;;;;;;25.60;22.60;;;;;21.01;42.48;99626.97;5071319;28;8843;-83
2023/05/20 06:36:29;;;;;;;;;21.00;20.80;;;;;21.14;42.73;99625.22;5052227;28;8876;-81
2023/05/20 06:39:01;;;;;;;;;21.80;21.40;;;;;21.26;42.23;99626.28;5068183;28;8892;-80
2023/05/20 06:41:30;;;;;;;;;23.00;22.40;;;;;21.33;41.84;99626.72;5070617;28;8858;-80
2023/05/20 06:43:59;;;;;;;;;25.00;24.80;;;;;21.48;42.21;99622.19;5071145;28;8859;-81
2023/05/20 06:46:49;;;;;;;;;27.20;25.40;;;;;21.67;41.41;99617.38;5063276;28;9103;-82
2023/05/20 06:49:18;;;;;;;;;21.20;21.20;;;;;21.73;40.20;99616.09;5059866;28;8850;-80
2023/05/20 06:51:47;;;;;;;;;21.60;21.60;;;;;21.67;39.53;99613.84;5019684;28;8848;-73
2023/05/20 06:54:16;;;;;;;;;23.60;22.00;;;;;21.77;39.23;99615.81;5007478;28;8836;-74
2023/05/20 06:56:45;;;;;;;;;21.60;19.40;;;;;21.72;38.83;99615.25;4986528;28;8992;-76
2023/05/20 06:59:15;;;;;;;;;18.00;17.60;;;;;21.80;38.78;99617.44;4977784;28;8984;-75
2023/05/20 07:01:44;;;;;;;;;22.20;21.00;;;;;21.80;38.42;99623.63;4998751;28;8848;-73
2023/05/20 07:04:15;;;;;;;;;19.40;18.60;;;;;21.89;38.07;99619.50;4978782;28;8857;-74
2023/05/20 07:06:44;;;;;;;;;21.20;21.00;;;;;21.89;38.13;99621.31;5006040;28;8875;-74
2023/05/20 07:09:13;;;;;;;;;23.40;23.20;;;;;21.80;37.38;99618.28;5013421;28;8859;-74
2023/05/20 07:11:41;;;;;;;;;20.80;20.60;;;;;21.69;38.09;99614.59;5025970;28;8859;-74
2023/05/20 07:14:10;;;;;;;;;23.00;22.60;;;;;21.77;38.60;99618.50;5010612;28;8918;-73
2023/05/20 07:16:39;;;;;;;;;21.00;19.00;;;;;21.83;38.89;99617.22;5006929;28;8985;-74
2023/05/20 07:19:09;;;;;;;;;22.00;21.20;;;;;21.94;39.30;99624.53;4975244;28;8846;-76
2023/05/20 07:21:40;;;;;;;;;22.80;21.20;;;;;21.80;37.84;99628.13;4994379;28;8908;-74
2023/05/20 07:24:12;;;;;;;;;20.60;20.40;;;;;21.80;37.90;99622.78;5028705;28;8872;-73
2023/05/20 07:26:41;;;;;;;;;24.20;22.40;;;;;21.91;37.03;99619.38;4998326;28;8855;-73
2023/05/20 07:29:11;;;;;;;;;20.20;18.20;;;;;22.02;36.95;99616.84;5030619;28;8966;-75
2023/05/20 07:31:40;;;;;;;;;20.40;19.40;;;;;21.95;37.10;99624.41;5046870;28;8876;-86
2023/05/20 07:34:09;;;;;;;;;23.20;21.60;;;;;22.00;36.78;99613.41;5051658;28;8863;-77
2023/05/20 07:36:38;;;;;;;;;22.20;21.20;;;;;21.84;36.77;99617.13;5064435;28;8893;-77
2023/05/20 07:39:09;;;;;;;;;18.00;18.00;;;;;22.05;36.99;99605.91;5049546;28;8865;-77
2023/05/20 07:41:42;;;;;;;;;23.00;22.40;;;;;22.14;36.86;99607.13;5034524;28;9420;-77
2023/05/20 07:44:12;;;;;;;;;20.20;19.60;;;;;22.20;37.03;99601.34;5002581;28;8935;-77
2023/05/20 07:46:45;;;;;;;;;23.00;21.60;;;;;22.29;37.45;99607.91;5053916;28;9020;-77
2023/05/20 07:49:14;;;;;;;;;23.00;23.00;;;;;22.35;38.42;99602.13;5066120;28;8844;-78
2023/05/20 07:51:45;;;;;;;;;26.00;23.60;;;;;22.03;37.75;99594.47;5049847;28;8859;-77
2023/05/20 07:54:17;;;;;;;;;21.60;21.20;;;;;22.17;37.78;99585.50;5043898;28;8860;-80
2023/05/20 07:56:48;;;;;;;;;23.80;22.60;;;;;22.11;37.43;99589.47;5049517;28;8855;-74
2023/05/20 07:59:17;;;;;;;;;23.40;21.40;;;;;22.14;37.83;99581.19;5033493;28;8844;-72
2023/05/20 08:01:49;;;;;;;;;18.20;16.80;;;;;21.99;37.79;99580.44;5008881;28;8875;-73
2023/05/20 08:04:20;;;;;;;;;24.20;23.80;;;;;21.67;38.29;99581.75;5009635;28;8953;-74
2023/05/20 08:06:53;;;;;;;;;24.20;23.20;;;;;21.83;38.58;99583.28;5005439;28;8878;-72
2023/05/20 08:09:34;;;;;;;;;24.00;22.80;;;;;21.85;38.60;99580.53;4962229;28;8878;-72
2023/05/20 08:12:05;;;;;;;;;22.40;20.80;;;;;21.72;38.67;99576.97;5000367;28;8979;-78
2023/05/20 08:14:34;;;;;;;;;26.00;25.60;;;;;21.73;39.06;99568.84;4993551;28;8880;-78
2023/05/20 08:17:04;;;;;;;;;27.20;26.40;;;;;21.75;39.38;99571.38;5009760;28;8883;-76
2023/05/20 08:19:33;;;;;;;;;27.20;26.40;;;;;21.86;39.81;99560.81;5009076;28;8849;-79
2023/05/20 08:22:02;;;;;;;;;27.00;27.00;;;;;21.80;39.86;99563.91;4993095;28;9651;-79
2023/05/20 08:24:31;;;;;;;;;24.20;24.20;;;;;22.07;39.88;99555.84;5009174;28;8844;-79
2023/05/20 08:27:01;;;;;;;;;24.60;23.40;;;;;22.14;38.83;99551.75;4987171;28;8990;-79
2023/05/20 08:29:30;;;;;;;;;26.40;24.80;;;;;22.15;39.81;99552.63;5009992;28;8981;-79
2023/05/20 08:32:00;;;;;;;;;27.20;24.00;;;;;22.17;39.28;99558.72;4996071;28;8870;-79
2023/05/20 08:34:29;;;;;;;;;32.25;29.25;;;;;22.09;39.41;99545.00;5031106;28;8830;-78
2023/05/20 08:36:58;;;;;;;;;23.60;23.20;;;;;21.94;39.06;99552.28;5029538;28;9714;-79
2023/05/20 08:39:27;;;;;;;;;23.80;23.00;;;;;21.69;39.27;99543.22;5046176;28;8911;-78
2023/05/20 08:41:58;;;;;;;;;25.00;22.20;;;;;21.84;38.78;99544.88;5029108;28;8882;-80
2023/05/20 08:44:30;;;;;;;;;24.40;23.40;;;;;21.75;39.18;99542.81;5031686;28;9680;-78
2023/05/20 08:46:59;;;;;;;;;28.20;27.00;;;;;21.64;39.50;99537.34;5048404;28;8937;-78
2023/05/20 08:49:28;;;;;;;;;23.80;23.20;;;;;21.67;38.50;99538.94;4999755;28;8843;-79
2023/05/20 08:51:57;;;;;;;;;30.00;28.60;;;;;21.66;39.33;99540.78;5065084;28;8915;-78
2023/05/20 08:54:33;;;;;;;;;25.20;24.40;;;;;21.86;38.71;99528.69;5065714;28;8859;-79
2023/05/20 08:57:03;;;;;;;;;25.00;25.00;;;;;21.69;38.60;99531.66;5065412;28;8871;-79
2023/05/20 08:59:34;;;;;;;;;25.20;24.20;;;;;21.54;39.02;99537.06;5064659;28;8852;-79
2023/05/20 09:02:03;;;;;;;;;29.60;28.20;;;;;21.78;38.87;99533.72;5033166;28;8858;-79
2023/05/20 09:04:32;;;;;;;;;27.00;25.00;;;;;21.79;38.04;99528.28;5067994;28;8854;-80
2023/05/20 09:07:00;;;;;;;;;28.00;27.20;;;;;21.98;38.23;99527.03;5063597;28;8880;-78
2023/05/20 09:09:30;;;;;;;;;29.40;29.40;;;;;22.14;38.75;99529.47;5048614;28;8864;-78
2023/05/20 09:11:59;;;;;;;;;27.80;25.40;;;;;21.94;39.07;99529.03;5076397;28;8876;-79
2023/05/20 09:14:28;;;;;;;;;27.20;27.00;;;;;21.91;38.41;99531.91;5040729;28;8865;-80
2023/05/20 09:16:59;;;;;;;;;29.00;28.60;;;;;22.10;38.79;99534.19;5051476;28;8969;-80
2023/05/20 09:19:28;;;;;;;;;28.20;28.00;;;;;22.12;38.69;99526.06;5017424;28;8862;-79
2023/05/20 09:21:57;;;;;;;;;24.80;24.80;;;;;22.28;38.46;99525.84;5067576;28;8847;-78
2023/05/20 09:24:26;;;;;;;;;32.80;31.60;;;;;21.99;39.01;99505.50;5066717;28;8866;-79
2023/05/20 09:26:55;;;;;;;;;30.60;29.80;;;;;22.17;39.04;99515.88;5029118;28;8971;-78
2023/05/20 09:29:24;;;;;;;;;30.40;28.20;;;;;22.00;39.00;99512.56;5028953;28;8925;-78
2023/05/20 09:31:55;;;;;;;;;27.40;25.60;;;;;22.22;39.00;99505.69;5028321;28;9657;-78
2023/05/20 09:34:26;;;;;;;;;30.80;27.40;;;;;22.07;38.94;99502.28;5027230;28;8884;-79
2023/05/20 09:36:58;;;;;;;;;31.33;30.33;;;;;22.17;38.58;99508.72;5026061;28;8937;-78
2023/05/20 09:39:31;;;;;;;;;28.80;26.60;;;;;22.30;37.67;99516.78;5027347;28;8989;-78
2023/05/20 09:42:05;;;;;;;;;30.00;28.40;;;;;22.16;37.77;99501.63;5025966;28;8887;-80
2023/05/20 09:44:35;;;;;;;;;29.40;26.80;;;;;22.04;37.83;99499.81;5027365;28;8859;-79
2023/05/20 09:47:08;;;;;;;;;24.20;24.00;;;;;21.99;38.43;99505.50;5025990;28;8894;-79
2023/05/20 09:49:40;;;;;;;;;25.80;25.40;;;;;22.11;37.77;99493.09;5026446;28;8840;-79
2023/05/20 09:52:09;;;;;;;;;27.20;26.20;;;;;21.85;37.09;99481.50;5008568;28;8913;-79
2023/05/20 09:54:38;;;;;;;;;24.60;22.00;;;;;22.05;36.96;99488.13;5026836;28;8863;-78
2023/05/20 09:57:07;;;;;;;;;26.20;25.20;;;;;22.19;36.57;99492.53;5025451;28;8902;-78
2023/05/20 09:59:37;;;;;;;;;26.20;25.40;;;;;22.21;37.30;99475.38;5024880;28;8875;-79
2023/05/20 10:02:06;;;;;;;;;28.20;24.40;;;;;22.40;36.97;99471.44;5027175;28;8888;-82
2023/05/20 10:04:42;;;;;;;;;23.60;22.60;;;;;22.52;36.35;99462.50;5025165;28;8855;-79
2023/05/20 10:07:52;;;;;;;;;20.80;19.40;;;;;22.42;36.15;99461.47;5025966;28;8871;-78
2023/05/20 10:10:33;;;;;;;;;22.00;21.80;;;;;22.55;35.78;99466.81;4969394;28;8868;-80
2023/05/20 10:13:15;;;;;;;;;22.20;21.60;;;;;22.54;35.38;99465.06;4969014;28;8877;-79
2023/05/20 10:15:54;;;;;;;;;25.20;23.60;;;;;22.36;35.50;99459.25;4974919;28;8843;-78
2023/05/20 10:18:47;;;;;;;;;27.80;24.60;;;;;22.72;35.02;99455.72;4972758;28;8881;-73
2023/05/20 10:21:23;;;;;;;;;23.20;21.20;;;;;23.01;35.15;99455.41;4981968;28;8853;-74
2023/05/20 10:23:52;;;;;;;;;21.60;20.20;;;;;23.12;35.20;99457.28;4971608;28;8880;-73
2023/05/20 10:26:21;;;;;;;;;21.40;18.60;;;;;23.30;35.21;99455.91;5009395;28;8847;-75
2023/05/20 10:28:50;;;;;;;;;22.00;20.00;;;;;23.57;34.40;99455.66;5021039;28;9767;-77
2023/05/20 10:31:22;;;;;;;;;21.00;20.80;;;;;23.59;33.80;99439.44;5021058;28;8932;-75
2023/05/20 10:33:53;;;;;;;;;20.60;19.20;;;;;23.57;33.17;99444.06;5018219;28;8894;-74
2023/05/20 10:36:26;;;;;;;;;19.20;19.20;;;;;23.81;33.10;99443.13;5014621;28;8961;-74
2023/05/20 10:38:56;;;;;;;;;21.00;21.00;;;;;23.87;33.28;99432.78;5019147;28;8864;-74
2023/05/20 10:41:26;;;;;;;;;19.40;19.40;;;;;23.52;31.79;99419.41;5021235;28;8979;-74
2023/05/20 10:44:03;;;;;;;;;16.60;16.20;;;;;23.33;31.54;99407.38;5022411;28;8867;-75
2023/05/20 10:46:32;;;;;;;;;19.40;18.60;;;;;23.46;32.27;99438.66;5039508;28;8865;-71
2023/05/20 10:49:21;;;;;;;;;22.00;19.00;;;;;23.52;30.81;99432.84;5063886;28;8878;-73
2023/05/20 10:51:56;;;;;;;;;18.20;18.00;;;;;23.78;30.50;99422.75;5057942;28;8966;-72
2023/05/20 10:54:25;;;;;;;;;17.60;17.20;;;;;24.11;30.62;99427.31;5030318;28;9721;-74
2023/05/20 10:56:56;;;;;;;;;20.60;20.20;;;;;24.37;30.80;99428.91;5050752;28;8858;-75
2023/05/20 10:59:24;;;;;;;;;14.20;13.80;;;;;24.61;30.42;99424.22;5035022;28;9036;-76
2023/05/20 11:01:54;;;;;;;;;19.00;18.00;;;;;24.85;30.22;99423.19;5029910;28;9124;-74
2023/05/20 11:04:24;;;;;;;;;16.20;14.80;;;;;24.89;29.63;99428.22;5038344;28;8848;-76
2023/05/20 11:06:54;;;;;;;;;19.40;18.60;;;;;25.05;29.78;99418.88;5061495;28;8888;-70
2023/05/20 11:09:25;;;;;;;;;20.80;19.00;;;;;25.33;28.81;99413.88;5061167;28;8860;-71
2023/05/20 11:11:55;;;;;;;;;22.40;22.40;;;;;25.48;29.21;99405.34;5048043;28;8931;-70
2023/05/20 11:14:23;;;;;;;;;19.00;18.00;;;;;25.58;28.96;99410.78;5057915;28;8865;-70
2023/05/20 11:16:53;;;;;;;;;20.20;19.20;;;;;25.75;29.45;99414.72;4998638;28;9615;-72
2023/05/20 11:19:22;;;;;;;;;19.80;19.80;;;;;25.94;28.63;99405.91;5047055;28;8882;-73
2023/05/20 11:21:51;;;;;;;;;18.20;17.80;;;;;26.15;28.41;99407.69;5015023;28;8855;-73
2023/05/20 11:24:26;;;;;;;;;18.40;18.40;;;;;26.36;28.64;99405.78;5063425;28;8998;-75
2023/05/20 11:26:56;;;;;;;;;17.00;16.80;;;;;26.34;27.35;99398.81;5059563;28;8863;-74
2023/05/20 11:29:27;;;;;;;;;22.80;21.20;;;;;26.40;27.09;99396.44;5050628;28;10038;-75
2023/05/20 11:31:56;;;;;;;;;19.00;17.60;;;;;26.53;27.20;99396.22;5063398;28;8839;-74
2023/05/20 11:34:25;;;;;;;;;16.40;15.80;;;;;26.45;25.49;99380.69;5068645;28;8867;-73
2023/05/20 11:36:58;;;;;;;;;17.20;17.20;;;;;26.66;26.09;99379.75;5048896;28;8888;-72
2023/05/20 11:39:30;;;;;;;;;19.20;19.20;;;;;26.66;25.60;99377.94;5049246;28;8861;-73